Weather History for New Ulm, MN

Change the Weather History Date:

Sunday, October 30, 2011

  Actual Average Record
Temperature  
Mean Temperature 45 °F -  
Max Temperature 48 °F 53 °F 78 °F (1950)
Min Temperature 42 °F 34 °F 15 °F (1991)
Degree Days  
Heating Degree Days 20    
Moisture  
Dew Point 31 °F    
Average Humidity 59    
Maximum Humidity 81    
Minimum Humidity 32    
Precipitation  
Precipitation 0.00 in - - ()
Sea Level Pressure  
Sea Level Pressure 29.85 in    
Wind  
Wind Speed 12 mph (WNW)    
Max Wind Speed 21 mph    
Max Gust Speed 29 mph    
Visibility 10 miles    
Events      
Averages and records for this station are not official NWS values.
T = Trace of Precipitation, MM = Missing Value Source: NWS Daily Summary

Daily Weather History Graph

Daily Weather History Graph

Search for Another Location

Airport:

Trip Planner

Search our weather history database for the weather conditions in past years. The results will help you decide how hot, cold, wet, or windy it might be!

Date:

Astronomy

Oct. 30, 2011 Rise Set
Actual Time 7:52 AM CDT 6:10 PM CDT
Civil Twilight 7:22 AM CDT 6:40 PM CDT
Nautical Twilight 6:47 AM CDT 7:14 PM CDT
Astronomical Twilight 6:14 AM CDT 7:48 PM CDT
Moon 12:18 PM CDT (10/30) 9:34 PM CDT (10/30)
Length of Visible Light 11h 18m
Length of Day
10h 18m
Waxing Crescent, 20% of the Moon is Illuminated
Oct 30
Waxing Crescent
Nov 2
First Quarter
Nov 10
Full
Nov 18
Last Quarter
Nov 25
New

Hourly Weather History & Observations

Time (CDT) Temp. Windchill Dew Point Humidity Pressure Visibility Wind Dir Wind Speed Gust Speed Precip Events Conditions
12:13 AM 48.2 °F - 19.4 °F 32% 29.83 in 10.0 mi SE 10.4 mph 18.4 mph N/A   Scattered Clouds
12:33 AM 48.2 °F - 21.2 °F 34% 29.82 in 10.0 mi SE 10.4 mph - N/A   Scattered Clouds
12:53 AM 48.2 °F - 21.2 °F 34% 29.81 in 10.0 mi SE 10.4 mph - N/A   Scattered Clouds
1:13 AM 46.4 °F 41.1 °F 21.2 °F 37% 29.81 in 10.0 mi SE 11.5 mph - N/A   Scattered Clouds
1:33 AM 46.4 °F 41.9 °F 21.2 °F 37% 29.81 in 10.0 mi SE 9.2 mph - N/A   Mostly Cloudy
1:53 AM 46.4 °F 42.4 °F 21.2 °F 37% 29.81 in 10.0 mi SE 8.1 mph - N/A   Mostly Cloudy
2:13 AM 46.4 °F 42.4 °F 21.2 °F 37% 29.81 in 10.0 mi SE 8.1 mph - N/A   Overcast
2:33 AM 46.4 °F 44.3 °F 23.0 °F 40% 29.81 in 10.0 mi SE 4.6 mph - N/A   Scattered Clouds
3:13 AM 44.6 °F 40.7 °F 23.0 °F 43% 29.80 in 10.0 mi SE 6.9 mph - N/A   Overcast
3:53 AM 42.8 °F 39.3 °F 23.0 °F 46% 29.79 in 10.0 mi SSE 5.8 mph - N/A   Scattered Clouds
4:13 AM 42.8 °F 39.3 °F 23.0 °F 46% 29.78 in 10.0 mi SSE 5.8 mph - N/A   Clear
4:33 AM 42.8 °F 38.6 °F 24.8 °F 49% 29.78 in 10.0 mi SSE 6.9 mph - N/A   Mostly Cloudy
4:53 AM 42.8 °F 39.3 °F 24.8 °F 49% 29.78 in 10.0 mi South 5.8 mph - N/A   Overcast
5:13 AM 42.8 °F 40.1 °F 24.8 °F 49% 29.77 in 10.0 mi SSE 4.6 mph - N/A   Mostly Cloudy
5:33 AM 42.8 °F 41.1 °F 24.8 °F 49% 29.76 in 10.0 mi SE 3.5 mph - N/A   Overcast
5:53 AM 44.6 °F 43.1 °F 24.8 °F 46% 29.76 in 10.0 mi SSE 3.5 mph - N/A   Mostly Cloudy
6:13 AM 44.6 °F 40.7 °F 24.8 °F 46% 29.78 in 10.0 mi SW 6.9 mph - N/A   Scattered Clouds
6:33 AM 42.8 °F 37.5 °F 26.6 °F 53% 29.78 in 10.0 mi West 9.2 mph - N/A   Clear
6:53 AM 42.8 °F 37.0 °F 26.6 °F 53% 29.79 in 10.0 mi West 10.4 mph - N/A   Clear
7:13 AM 42.8 °F 36.2 °F 28.4 °F 57% 29.79 in 10.0 mi West 12.7 mph - N/A   Scattered Clouds
7:33 AM 42.8 °F 35.8 °F 30.2 °F 61% 29.80 in 10.0 mi West 13.8 mph - N/A   Mostly Cloudy
7:53 AM 44.6 °F 37.4 °F 35.6 °F 71% 29.80 in 10.0 mi WNW 16.1 mph - N/A   Mostly Cloudy
8:13 AM 44.6 °F 36.9 °F 37.4 °F 76% 29.81 in 10.0 mi WNW 18.4 mph 23.0 mph N/A   Mostly Cloudy
8:33 AM 44.6 °F 37.2 °F 37.4 °F 76% 29.82 in 10.0 mi WNW 17.3 mph - N/A   Overcast
9:13 AM 44.6 °F 36.6 °F 39.2 °F 81% 29.81 in 10.0 mi NW 19.6 mph 24.2 mph N/A   Mostly Cloudy
9:33 AM 46.4 °F 39.8 °F 39.2 °F 76% 29.82 in 10.0 mi NW 16.1 mph - N/A   Scattered Clouds
9:53 AM 46.4 °F 38.7 °F 37.4 °F 71% 29.81 in 10.0 mi NW 20.7 mph 26.5 mph N/A   Scattered Clouds
10:13 AM 46.4 °F 39.0 °F 37.4 °F 71% 29.82 in 10.0 mi NW 19.6 mph 28.8 mph N/A   Scattered Clouds
10:33 AM 46.4 °F 40.4 °F 37.4 °F 71% 29.83 in 10.0 mi NW 13.8 mph - N/A   Mostly Cloudy
10:53 AM 46.4 °F 40.7 °F 37.4 °F 71% 29.83 in 10.0 mi WNW 12.7 mph 23.0 mph N/A   Overcast
11:13 AM 46.4 °F 39.2 °F 37.4 °F 71% 29.83 in 10.0 mi NW 18.4 mph 27.6 mph N/A   Overcast
11:33 AM 46.4 °F 39.0 °F 37.4 °F 71% 29.84 in 10.0 mi NW 19.6 mph - N/A   Overcast
11:53 AM 46.4 °F 39.2 °F 35.6 °F 66% 29.84 in 10.0 mi NW 18.4 mph 26.5 mph N/A   Mostly Cloudy
12:13 PM 46.4 °F 39.0 °F 35.6 °F 66% 29.85 in 10.0 mi NW 19.6 mph - N/A   Mostly Cloudy
12:33 PM 46.4 °F 40.7 °F 35.6 °F 66% 29.85 in 10.0 mi WNW 12.7 mph - N/A   Mostly Cloudy
12:53 PM 46.4 °F 39.2 °F 35.6 °F 66% 29.84 in 10.0 mi NW 18.4 mph - N/A   Mostly Cloudy
1:13 PM 46.4 °F 39.0 °F 35.6 °F 66% 29.85 in 10.0 mi WNW 19.6 mph 24.2 mph N/A   Mostly Cloudy
1:33 PM 46.4 °F 39.8 °F 35.6 °F 66% 29.84 in 10.0 mi NW 16.1 mph 21.9 mph N/A   Mostly Cloudy
1:53 PM 46.4 °F 39.0 °F 35.6 °F 66% 29.84 in 10.0 mi WNW 19.6 mph - N/A   Mostly Cloudy
2:13 PM 46.4 °F 39.2 °F 33.8 °F 62% 29.85 in 10.0 mi NW 18.4 mph 25.3 mph N/A   Mostly Cloudy
2:33 PM 46.4 °F 40.1 °F 33.8 °F 62% 29.85 in 10.0 mi WNW 15.0 mph 20.7 mph N/A   Overcast
2:53 PM 46.4 °F 40.4 °F 33.8 °F 62% 29.86 in 10.0 mi NW 13.8 mph - N/A   Overcast
3:13 PM 46.4 °F 39.5 °F 33.8 °F 62% 29.86 in 10.0 mi NW 17.3 mph 23.0 mph N/A   Overcast
3:33 PM 46.4 °F 40.4 °F 33.8 °F 62% 29.86 in 10.0 mi WNW 13.8 mph - N/A   Overcast
4:13 PM 46.4 °F 39.2 °F 32.0 °F 57% 29.87 in 10.0 mi NW 18.4 mph 23.0 mph N/A   Overcast
4:33 PM 46.4 °F 39.2 °F 32.0 °F 57% 29.88 in 10.0 mi NW 18.4 mph 25.3 mph N/A   Overcast
4:53 PM 46.4 °F 39.0 °F 32.0 °F 57% 29.89 in 10.0 mi NW 19.6 mph 24.2 mph N/A   Overcast
5:13 PM 46.4 °F 39.5 °F 32.0 °F 57% 29.90 in 10.0 mi NW 17.3 mph 25.3 mph N/A   Overcast
5:33 PM 44.6 °F 37.8 °F 32.0 °F 61% 29.91 in 10.0 mi NW 15.0 mph - N/A   Overcast
5:53 PM 44.6 °F 37.8 °F 33.8 °F 66% 29.92 in 10.0 mi NW 15.0 mph 21.9 mph N/A   Overcast
6:13 PM 44.6 °F 37.8 °F 33.8 °F 66% 29.92 in 10.0 mi NW 15.0 mph 23.0 mph N/A   Overcast
6:33 PM 44.6 °F 38.8 °F 33.8 °F 66% 29.93 in 10.0 mi NW 11.5 mph - N/A   Overcast
6:53 PM 44.6 °F 38.1 °F 33.8 °F 66% 29.94 in 10.0 mi NW 13.8 mph - N/A   Overcast
7:13 PM 44.6 °F 37.8 °F 33.8 °F 66% 29.95 in 10.0 mi NW 15.0 mph 21.9 mph N/A   Overcast
7:33 PM 44.6 °F 37.8 °F 33.8 °F 66% 29.95 in 10.0 mi NW 15.0 mph 19.6 mph N/A   Overcast
7:53 PM 44.6 °F 38.1 °F 33.8 °F 66% 29.95 in 10.0 mi NW 13.8 mph - N/A   Mostly Cloudy
8:13 PM 44.6 °F 37.4 °F 33.8 °F 66% 29.95 in 10.0 mi NW 16.1 mph 21.9 mph N/A   Overcast
8:33 PM 42.8 °F 36.2 °F 33.8 °F 70% 29.95 in 10.0 mi NW 12.7 mph 19.6 mph N/A   Overcast
8:53 PM 42.8 °F 36.2 °F 33.8 °F 70% 29.96 in 10.0 mi NW 12.7 mph - N/A   Overcast
9:13 PM 42.8 °F 36.2 °F 33.8 °F 70% 29.96 in 10.0 mi NW 12.7 mph - N/A   Overcast
9:33 PM 42.8 °F 35.1 °F 33.8 °F 70% 29.96 in 10.0 mi NW 16.1 mph - N/A   Overcast
9:53 PM 42.8 °F 36.2 °F 33.8 °F 70% 29.96 in 10.0 mi WNW 12.7 mph - N/A   Overcast
10:13 PM 42.8 °F 36.2 °F 33.8 °F 70% 29.97 in 10.0 mi NW 12.7 mph - N/A   Mostly Cloudy
10:33 PM 42.8 °F 36.6 °F 33.8 °F 70% 29.97 in 10.0 mi NW 11.5 mph - N/A   Mostly Cloudy
10:53 PM 41.0 °F 34.7 °F 33.8 °F 76% 29.97 in 10.0 mi WNW 10.4 mph 16.1 mph N/A   Scattered Clouds
11:13 PM 41.0 °F 34.7 °F 33.8 °F 76% 29.98 in 10.0 mi WNW 10.4 mph - N/A   Mostly Cloudy
11:33 PM 39.2 °F 32.5 °F 33.8 °F 81% 29.98 in 10.0 mi NW 10.4 mph - N/A   Scattered Clouds
11:53 PM 39.2 °F 33.0 °F 33.8 °F 81% 29.98 in 10.0 mi WNW 9.2 mph - N/A   Mostly Cloudy